Terminal Aerodrome Forecast
Issued by NWS Corpus Christi, TX

Home | Current Version | Previous Version | Text Only | Print | Product List | Glossary On
Versions: 1 2 3 4 5 6 7 8 9 10 11 12 13
000
FTUS44 KCRP 280500
TAFVCT
TAF
KVCT 280520Z 2806/0106 05012KT P6SM OVC018
     FM281000 06012KT P6SM OVC012
      TEMPO 2813/2817 5SM -RA BR OVC008
     FM281700 05014KT 4SM -RA BR OVC007
     FM282100 03012KT 3SM -SHRA OVC004=

USA.gov is the U.S. government's official web portal to all federal, state and local government web resources and services.